createdAt,value
2023-02-27T00:00:07.144Z,69.44
2023-02-27T00:02:38.851Z,69.54
2023-02-27T00:05:08.649Z,69.33
2023-02-27T00:07:36.927Z,69.36
2023-02-27T00:10:05.601Z,69.61
2023-02-27T00:12:39.940Z,69.56
2023-02-27T00:15:13.260Z,69.62
2023-02-27T00:17:47.210Z,69.73
2023-02-27T00:20:16.558Z,70.01
2023-02-27T00:22:46.384Z,70.15
2023-02-27T00:25:15.276Z,70.21
2023-02-27T00:27:43.950Z,70.08
2023-02-27T00:30:13.873Z,69.90
2023-02-27T00:32:44.071Z,69.91
2023-02-27T00:35:12.330Z,69.91
2023-02-27T00:37:40.783Z,70.11
2023-02-27T00:40:09.769Z,70.10
2023-02-27T00:42:38.067Z,70.09
2023-02-27T00:45:06.922Z,70.12
2023-02-27T00:47:35.276Z,70.36
2023-02-27T00:50:03.648Z,70.27
2023-02-27T00:52:33.826Z,70.37
2023-02-27T00:55:02.516Z,70.32
2023-02-27T00:57:30.982Z,70.33
2023-02-27T01:00:00.087Z,70.35
2023-02-27T01:02:28.560Z,70.64
2023-02-27T01:04:57.459Z,70.68
2023-02-27T01:07:25.731Z,70.59
2023-02-27T01:09:54.931Z,70.70
2023-02-27T01:12:23.282Z,70.57
2023-02-27T01:14:51.689Z,70.75
2023-02-27T01:17:20.637Z,70.87
2023-02-27T01:19:48.923Z,71.08
2023-02-27T01:22:17.396Z,71.26
2023-02-27T01:24:47.576Z,71.20
2023-02-27T01:27:16.036Z,71.07
2023-02-27T01:29:45.235Z,70.92
2023-02-27T01:32:13.859Z,71.13
2023-02-27T01:34:42.103Z,71.01
2023-02-27T01:37:10.284Z,71.18
2023-02-27T01:39:38.908Z,71.04
2023-02-27T01:42:20.976Z,70.98
2023-02-27T01:45:07.824Z,71.04
2023-02-27T01:47:36.421Z,70.89
2023-02-27T01:50:07.167Z,71.05
2023-02-27T01:52:39.184Z,70.83
2023-02-27T01:55:08.772Z,70.62
2023-02-27T01:57:37.429Z,70.25
2023-02-27T02:00:06.360Z,70.49
2023-02-27T02:02:44.759Z,70.57
2023-02-27T02:05:15.656Z,70.71
2023-02-27T02:07:44.001Z,70.81
2023-02-27T02:10:13.128Z,70.88
2023-02-27T02:12:41.344Z,71.14
2023-02-27T02:15:13.603Z,71.17
2023-02-27T02:18:14.960Z,71.23
2023-02-27T02:20:52.947Z,71.20
2023-02-27T02:23:30.847Z,71.19
2023-02-27T02:26:38.507Z,71.43
2023-02-27T02:29:17.258Z,71.61
2023-02-27T02:31:53.977Z,71.38
2023-02-27T02:34:46.271Z,71.29
2023-02-27T02:37:26.730Z,71.30
2023-02-27T02:40:07.048Z,71.44
2023-02-27T02:42:43.704Z,71.46
2023-02-27T02:45:19.149Z,71.52
2023-02-27T02:48:08.886Z,71.35
2023-02-27T02:50:48.962Z,71.48
2023-02-27T02:53:39.582Z,71.84
2023-02-27T02:56:16.041Z,71.77
2023-02-27T02:58:51.475Z,71.79
2023-02-27T03:01:26.835Z,71.83
2023-02-27T03:03:57.426Z,72.10
2023-02-27T03:06:30.942Z,72.12
2023-02-27T03:09:08.046Z,71.98
2023-02-27T03:11:41.361Z,71.94
2023-02-27T03:14:22.963Z,71.72
2023-02-27T03:16:53.391Z,71.88
2023-02-27T03:19:24.343Z,71.89
2023-02-27T03:22:06.981Z,71.75
2023-02-27T03:24:40.492Z,71.26
2023-02-27T03:27:10.199Z,71.01
2023-02-27T03:29:42.762Z,70.76
2023-02-27T03:32:23.425Z,70.52
2023-02-27T03:34:51.953Z,70.42
2023-02-27T03:37:38.329Z,70.28
2023-02-27T03:40:06.948Z,70.20
2023-02-27T03:42:35.528Z,70.11
2023-02-27T03:45:15.794Z,70.10
2023-02-27T03:47:44.795Z,69.94
2023-02-27T03:50:13.725Z,69.85
2023-02-27T03:52:42.300Z,69.90
2023-02-27T03:55:16.208Z,69.91
2023-02-27T03:57:45.673Z,69.82
2023-02-27T04:00:16.718Z,69.75
2023-02-27T04:02:50.734Z,69.41
2023-02-27T04:05:21.664Z,69.27
2023-02-27T04:08:13.477Z,69.44
2023-02-27T04:11:06.514Z,69.64
2023-02-27T04:13:40.907Z,69.70
2023-02-27T04:16:35.526Z,69.53
2023-02-27T04:19:12.982Z,69.87
2023-02-27T04:21:48.794Z,69.88
2023-02-27T04:24:37.623Z,69.84
2023-02-27T04:27:28.945Z,69.68
2023-02-27T04:30:23.895Z,69.69
2023-02-27T04:32:56.059Z,69.60
2023-02-27T04:35:26.850Z,69.51
2023-02-27T04:38:04.014Z,69.56
2023-02-27T04:40:36.332Z,69.40
2023-02-27T04:43:04.634Z,69.31
2023-02-27T04:45:33.602Z,69.15
2023-02-27T04:48:14.912Z,68.93
2023-02-27T04:50:50.268Z,68.87
2023-02-27T04:53:25.612Z,68.79
2023-02-27T04:55:56.022Z,68.72
2023-02-27T04:58:31.697Z,68.80
2023-02-27T05:01:05.604Z,68.93
2023-02-27T05:03:36.541Z,68.95
2023-02-27T05:06:05.050Z,68.95
2023-02-27T05:08:52.995Z,68.74
2023-02-27T05:11:29.380Z,68.82
2023-02-27T05:14:04.292Z,68.83
2023-02-27T05:16:39.672Z,68.80
2023-02-27T05:19:08.664Z,68.77
2023-02-27T05:21:39.645Z,68.70
2023-02-27T05:24:22.295Z,68.71
2023-02-27T05:27:12.076Z,68.81
2023-02-27T05:29:54.026Z,69.38
2023-02-27T05:32:34.210Z,69.44
2023-02-27T05:35:03.386Z,69.47
2023-02-27T05:37:34.775Z,69.50
2023-02-27T05:40:08.541Z,69.50
2023-02-27T05:42:50.587Z,69.21
2023-02-27T05:45:23.593Z,68.40
2023-02-27T05:48:28.066Z,68.28
2023-02-27T05:50:56.191Z,68.65
2023-02-27T05:53:29.768Z,68.77
2023-02-27T05:55:59.646Z,68.60
2023-02-27T05:58:34.642Z,68.46
2023-02-27T06:01:04.584Z,68.39
2023-02-27T06:03:34.084Z,68.24
2023-02-27T06:06:04.094Z,68.23
2023-02-27T06:08:32.525Z,68.09
2023-02-27T06:11:00.936Z,67.89
2023-02-27T06:13:29.601Z,67.71
2023-02-27T06:15:57.760Z,67.51
2023-02-27T06:18:26.144Z,67.48
2023-02-27T06:20:55.003Z,67.42
2023-02-27T06:23:25.495Z,67.25
2023-02-27T06:25:54.078Z,67.10
2023-02-27T06:28:22.242Z,67.05
2023-02-27T06:30:57.399Z,67.13
2023-02-27T06:33:26.354Z,67.26
2023-02-27T06:35:54.798Z,67.40
2023-02-27T06:38:22.991Z,67.46
2023-02-27T06:40:51.795Z,67.46
2023-02-27T06:43:23.266Z,67.48
2023-02-27T06:45:56.068Z,67.75
2023-02-27T06:48:24.446Z,68.04
2023-02-27T06:50:56.449Z,68.52
2023-02-27T06:53:25.861Z,68.58
2023-02-27T06:55:54.020Z,68.65
2023-02-27T06:58:25.078Z,68.86
2023-02-27T07:00:53.233Z,68.97
2023-02-27T07:03:21.391Z,69.34
2023-02-27T07:05:50.526Z,69.63
2023-02-27T07:08:19.453Z,69.41
2023-02-27T07:10:49.299Z,69.48
2023-02-27T07:13:19.656Z,69.26
2023-02-27T07:15:50.858Z,69.42
2023-02-27T07:18:20.010Z,69.45
2023-02-27T07:20:51.769Z,69.67
2023-02-27T07:23:21.153Z,69.62
2023-02-27T07:25:53.988Z,69.45
2023-02-27T07:28:22.533Z,69.22
2023-02-27T07:30:53.809Z,69.22
2023-02-27T07:33:23.901Z,69.27
2023-02-27T07:35:52.133Z,69.16
2023-02-27T07:38:23.010Z,69.05
2023-02-27T07:40:53.433Z,69.23
2023-02-27T07:43:22.227Z,69.19
2023-02-27T07:45:51.248Z,69.12
2023-02-27T07:48:19.537Z,69.32
2023-02-27T07:50:47.902Z,68.92
2023-02-27T07:53:16.526Z,68.77
2023-02-27T07:55:46.753Z,68.63
2023-02-27T07:58:20.413Z,68.25
2023-02-27T08:00:48.680Z,67.91
2023-02-27T08:03:16.829Z,67.91
2023-02-27T08:05:45.298Z,67.79
2023-02-27T08:08:13.670Z,67.77
2023-02-27T08:10:43.616Z,67.67
2023-02-27T08:13:11.948Z,67.47
2023-02-27T08:15:40.078Z,67.33
2023-02-27T08:18:27.204Z,67.33
2023-02-27T08:20:56.984Z,67.41
2023-02-27T08:23:28.978Z,67.31
2023-02-27T08:25:58.451Z,67.41
2023-02-27T08:28:27.842Z,67.19
2023-02-27T08:30:56.434Z,66.88
2023-02-27T08:33:24.916Z,67.14
2023-02-27T08:35:54.678Z,67.49
2023-02-27T08:38:24.833Z,67.92
2023-02-27T08:40:54.914Z,68.24
2023-02-27T08:43:23.283Z,68.43
2023-02-27T08:48:30.286Z,68.90
2023-02-27T08:50:59.280Z,68.48
2023-02-27T08:53:28.684Z,68.87
2023-02-27T08:55:57.679Z,69.00
2023-02-27T08:58:26.681Z,69.02
2023-02-27T09:00:57.346Z,68.84
2023-02-27T09:03:28.954Z,69.02
2023-02-27T09:05:57.533Z,69.10
2023-02-27T09:08:26.132Z,69.25
2023-02-27T09:10:57.988Z,69.14
2023-02-27T09:13:27.070Z,69.10
2023-02-27T09:15:55.672Z,69.14
2023-02-27T09:18:25.384Z,69.25
2023-02-27T09:20:53.753Z,69.51
2023-02-27T09:23:22.340Z,69.63
2023-02-27T09:25:50.795Z,69.97
2023-02-27T09:28:20.314Z,69.86
2023-02-27T09:30:49.205Z,69.80
2023-02-27T09:33:17.894Z,70.29
2023-02-27T09:35:49.166Z,70.55
2023-02-27T09:38:17.520Z,70.76
2023-02-27T09:40:45.914Z,70.75
2023-02-27T09:43:17.362Z,70.47
2023-02-27T09:45:47.169Z,70.47
2023-02-27T09:48:32.427Z,70.63
2023-02-27T09:51:01.112Z,70.96
2023-02-27T09:53:38.425Z,71.14
2023-02-27T09:56:29.444Z,71.57
2023-02-27T09:59:32.506Z,71.70
2023-02-27T10:02:16.272Z,71.90
2023-02-27T10:04:56.123Z,71.79
2023-02-27T10:07:48.692Z,71.59
2023-02-27T10:10:17.115Z,71.45
2023-02-27T10:13:11.706Z,71.31
2023-02-27T10:15:46.748Z,71.10
2023-02-27T10:18:34.832Z,70.86
2023-02-27T10:21:07.898Z,70.74
2023-02-27T10:23:39.730Z,70.74
2023-02-27T10:26:11.385Z,70.68
2023-02-27T10:28:39.965Z,70.65
2023-02-27T10:31:15.364Z,70.81
2023-02-27T10:33:44.504Z,70.97
2023-02-27T10:36:23.620Z,70.83
2023-02-27T10:39:01.365Z,70.59
2023-02-27T10:41:30.179Z,70.71
2023-02-27T10:43:59.793Z,70.92
2023-02-27T10:46:38.821Z,71.04
2023-02-27T10:49:15.681Z,70.58
2023-02-27T10:51:44.871Z,70.64
2023-02-27T10:54:21.087Z,70.69
2023-02-27T10:56:57.051Z,70.35
2023-02-27T10:59:40.800Z,69.89
2023-02-27T11:02:18.173Z,69.60
2023-02-27T11:04:54.247Z,69.45
2023-02-27T11:07:38.886Z,69.52
2023-02-27T11:10:13.429Z,69.73
2023-02-27T11:12:43.627Z,70.00
2023-02-27T11:15:16.448Z,70.32
2023-02-27T11:17:44.785Z,70.22
2023-02-27T11:20:32.010Z,70.33
2023-02-27T11:23:15.248Z,70.44
2023-02-27T11:25:44.365Z,70.39
2023-02-27T11:28:24.079Z,69.86
2023-02-27T11:31:08.087Z,69.75
2023-02-27T11:33:40.087Z,69.55
2023-02-27T11:36:11.669Z,69.38
2023-02-27T11:38:55.070Z,69.03
2023-02-27T11:41:30.685Z,69.01
2023-02-27T11:43:59.202Z,68.92
2023-02-27T11:46:46.992Z,68.74
2023-02-27T11:49:19.618Z,68.58
2023-02-27T11:52:01.304Z,68.42
2023-02-27T11:54:55.613Z,68.12
2023-02-27T11:57:35.349Z,67.99
2023-02-27T12:00:18.149Z,68.13
2023-02-27T12:03:04.799Z,67.97
2023-02-27T12:05:50.936Z,67.97
2023-02-27T12:08:25.825Z,68.08
2023-02-27T12:11:18.533Z,67.99
2023-02-27T12:13:54.159Z,67.69
2023-02-27T12:16:54.333Z,67.89
2023-02-27T12:19:26.851Z,67.83
2023-02-27T12:22:25.571Z,67.39
2023-02-27T12:25:14.324Z,67.30
2023-02-27T12:27:49.457Z,67.24
2023-02-27T12:30:43.130Z,67.54
2023-02-27T12:33:22.664Z,67.70
2023-02-27T12:35:58.934Z,67.58
2023-02-27T12:38:27.510Z,67.73
2023-02-27T12:41:41.966Z,67.56
2023-02-27T12:44:31.951Z,67.36
2023-02-27T12:47:25.212Z,67.44
2023-02-27T12:50:02.696Z,67.31
2023-02-27T12:52:37.236Z,67.08
2023-02-27T12:55:27.330Z,66.79
2023-02-27T12:58:07.975Z,66.49
2023-02-27T13:00:41.786Z,66.22
2023-02-27T13:03:25.415Z,66.09
2023-02-27T13:05:56.662Z,65.85
2023-02-27T13:08:38.662Z,65.84
2023-02-27T13:11:43.812Z,65.81
2023-02-27T13:14:28.465Z,65.60
2023-02-27T13:17:19.594Z,65.51
2023-02-27T13:20:19.288Z,65.43
2023-02-27T13:23:11.528Z,65.60
2023-02-27T13:25:40.012Z,65.77
2023-02-27T13:28:11.434Z,65.55
2023-02-27T13:30:41.990Z,65.39
2023-02-27T13:33:12.865Z,65.16
2023-02-27T13:36:01.004Z,65.19
2023-02-27T13:38:33.764Z,65.35
2023-02-27T13:41:20.468Z,65.34
2023-02-27T13:43:53.320Z,65.20
2023-02-27T13:46:29.276Z,65.12
2023-02-27T13:49:12.538Z,65.07
2023-02-27T13:51:49.981Z,65.24
2023-02-27T13:54:23.617Z,65.38
2023-02-27T13:56:55.417Z,65.46
2023-02-27T13:59:41.984Z,65.56
2023-02-27T14:02:13.070Z,65.86
2023-02-27T14:04:48.952Z,66.07
2023-02-27T14:07:21.732Z,65.86
2023-02-27T14:09:53.818Z,65.66
2023-02-27T14:12:45.789Z,65.69
2023-02-27T14:15:16.577Z,65.89
2023-02-27T14:17:54.438Z,65.99
2023-02-27T14:20:27.802Z,66.00
2023-02-27T14:23:15.596Z,65.95
2023-02-27T14:25:54.444Z,66.29
2023-02-27T14:28:26.208Z,66.54
2023-02-27T14:31:09.114Z,66.65
2023-02-27T14:33:48.408Z,66.70
2023-02-27T14:36:22.070Z,66.62
2023-02-27T14:38:50.928Z,66.72
2023-02-27T14:41:45.213Z,66.93
2023-02-27T14:44:23.869Z,66.99
2023-02-27T14:46:53.953Z,67.03
2023-02-27T14:49:30.521Z,66.84
2023-02-27T14:52:15.184Z,66.60
2023-02-27T14:54:45.122Z,66.29
2023-02-27T14:57:21.871Z,65.88
2023-02-27T14:59:51.824Z,65.39
2023-02-27T15:02:33.887Z,65.24
2023-02-27T15:05:02.778Z,65.24
2023-02-27T15:07:33.408Z,65.07
2023-02-27T15:10:05.589Z,65.06
2023-02-27T15:12:37.563Z,65.05
2023-02-27T15:15:08.084Z,64.86
2023-02-27T15:17:41.876Z,64.77
2023-02-27T15:20:24.915Z,64.42
2023-02-27T15:22:53.786Z,64.32
2023-02-27T15:25:37.744Z,64.27
2023-02-27T15:28:08.691Z,64.24
2023-02-27T15:30:37.564Z,64.61
2023-02-27T15:33:12.400Z,64.91
2023-02-27T15:35:42.784Z,65.12
2023-02-27T15:38:24.294Z,65.34
2023-02-27T15:40:53.086Z,65.47
2023-02-27T15:43:21.687Z,65.36
2023-02-27T15:45:50.144Z,65.31
2023-02-27T15:48:18.838Z,65.51
2023-02-27T15:50:56.118Z,65.50
2023-02-27T15:53:28.615Z,65.62
2023-02-27T15:55:59.132Z,65.64
2023-02-27T15:58:35.555Z,65.66
2023-02-27T16:01:17.924Z,65.53
2023-02-27T16:03:48.154Z,65.51
2023-02-27T16:06:26.955Z,65.73
2023-02-27T16:09:00.656Z,65.91
2023-02-27T16:11:34.745Z,66.02
2023-02-27T16:14:03.944Z,66.19
2023-02-27T16:16:37.740Z,66.29
2023-02-27T16:19:24.562Z,66.36
2023-02-27T16:22:16.297Z,66.53
2023-02-27T16:24:45.320Z,66.70
2023-02-27T16:27:18.927Z,67.07
2023-02-27T16:29:47.259Z,67.33
2023-02-27T16:32:24.942Z,67.57
2023-02-27T16:35:06.130Z,67.64
2023-02-27T16:37:39.033Z,67.67
2023-02-27T16:40:14.058Z,67.91
2023-02-27T16:42:43.252Z,67.85
2023-02-27T16:45:16.130Z,67.68
2023-02-27T16:47:45.680Z,67.84
2023-02-27T16:50:27.225Z,68.06
2023-02-27T16:52:57.391Z,68.13
2023-02-27T16:55:33.636Z,68.05
2023-02-27T16:58:02.594Z,68.12
2023-02-27T17:00:31.081Z,68.04
2023-02-27T17:02:59.767Z,68.08
2023-02-27T17:05:28.960Z,68.14
2023-02-27T17:07:58.057Z,67.94
2023-02-27T17:10:26.773Z,67.98
2023-02-27T17:12:58.206Z,67.99
2023-02-27T17:15:29.446Z,68.29
2023-02-27T17:17:57.922Z,68.30
2023-02-27T17:20:28.168Z,68.09
2023-02-27T17:23:00.034Z,68.20
2023-02-27T17:25:28.685Z,68.30
2023-02-27T17:27:57.167Z,68.08
2023-02-27T17:30:25.907Z,68.04
2023-02-27T17:32:54.640Z,68.08
2023-02-27T17:35:23.253Z,68.10
2023-02-27T17:37:51.912Z,67.97
2023-02-27T17:40:24.690Z,68.16
2023-02-27T17:42:53.375Z,67.68
2023-02-27T17:45:22.061Z,67.29
2023-02-27T17:47:50.746Z,66.88
2023-02-27T17:50:19.327Z,66.69
2023-02-27T17:52:47.929Z,66.52
2023-02-27T17:55:17.208Z,66.56
2023-02-27T17:57:46.412Z,66.42
2023-02-27T18:00:15.624Z,66.13
2023-02-27T18:02:48.323Z,66.40
2023-02-27T18:05:17.271Z,65.83
2023-02-27T18:07:45.956Z,65.60
2023-02-27T18:10:16.078Z,65.54
2023-02-27T18:12:44.463Z,65.51
2023-02-27T18:15:12.832Z,65.41
2023-02-27T18:17:43.363Z,65.68
2023-02-27T18:20:12.660Z,65.62
2023-02-27T18:22:42.077Z,65.70
2023-02-27T18:25:10.642Z,65.41
2023-02-27T18:27:39.227Z,65.55
2023-02-27T18:30:08.399Z,65.59
2023-02-27T18:32:38.980Z,65.37
2023-02-27T18:35:08.050Z,65.21
2023-02-27T18:37:36.339Z,65.32
2023-02-27T18:40:06.249Z,65.15
2023-02-27T18:42:36.873Z,65.01
2023-02-27T18:45:06.380Z,64.80
2023-02-27T18:47:34.958Z,64.81
2023-02-27T18:50:03.333Z,65.16
2023-02-27T18:52:32.432Z,65.50
2023-02-27T18:55:00.806Z,65.79
2023-02-27T18:57:31.645Z,65.67
2023-02-27T19:00:00.641Z,65.62
2023-02-27T19:02:29.123Z,65.61
2023-02-27T19:04:57.493Z,65.61
2023-02-27T19:07:26.079Z,65.66
2023-02-27T19:09:57.337Z,65.54
2023-02-27T19:12:25.903Z,65.69
2023-02-27T19:14:57.465Z,65.64
2023-02-27T19:17:26.253Z,65.74
2023-02-27T19:19:54.727Z,65.71
2023-02-27T19:22:23.517Z,65.86
2023-02-27T19:24:52.616Z,66.20
2023-02-27T19:27:20.991Z,66.42
2023-02-27T19:29:49.696Z,66.31
2023-02-27T19:32:18.606Z,66.21
2023-02-27T19:34:47.157Z,66.31
2023-02-27T19:37:17.116Z,66.33
2023-02-27T19:39:45.468Z,66.39
2023-02-27T19:42:14.020Z,66.26
2023-02-27T19:44:43.542Z,66.19
2023-02-27T19:47:13.285Z,66.16
2023-02-27T19:49:42.237Z,66.18
2023-02-27T19:52:13.476Z,66.10
2023-02-27T19:54:42.569Z,65.91
2023-02-27T19:57:15.039Z,65.94
2023-02-27T19:59:43.724Z,66.04
2023-02-27T20:02:12.328Z,65.97
2023-02-27T20:04:41.004Z,65.95
2023-02-27T20:07:09.989Z,66.18
2023-02-27T20:09:39.488Z,65.85
2023-02-27T20:12:09.521Z,65.87
2023-02-27T20:14:38.701Z,65.90
2023-02-27T20:17:08.308Z,65.82
2023-02-27T20:19:36.792Z,65.67
2023-02-27T20:22:05.174Z,65.56
2023-02-27T20:24:33.954Z,65.56
2023-02-27T20:27:05.049Z,65.53
2023-02-27T20:29:33.373Z,65.67
2023-02-27T20:32:02.386Z,66.17
2023-02-27T20:34:31.156Z,66.35
2023-02-27T20:37:00.585Z,66.27
2023-02-27T20:39:30.283Z,66.29
2023-02-27T20:41:59.051Z,65.94
2023-02-27T20:44:27.880Z,65.74
2023-02-27T20:46:56.225Z,65.64
2023-02-27T20:49:28.180Z,65.86
2023-02-27T20:51:58.094Z,65.98
2023-02-27T20:54:26.378Z,65.87
2023-02-27T20:56:54.957Z,65.88
2023-02-27T20:59:25.403Z,65.51
2023-02-27T21:01:54.923Z,65.61
2023-02-27T21:04:46.298Z,65.53
2023-02-27T21:07:17.412Z,65.66
2023-02-27T21:09:45.881Z,66.02
2023-02-27T21:12:15.643Z,65.52
2023-02-27T21:14:44.626Z,65.36
2023-02-27T21:17:14.039Z,65.60
2023-02-27T21:19:44.664Z,65.72
2023-02-27T21:22:14.575Z,65.75
2023-02-27T21:24:43.158Z,65.74
2023-02-27T21:27:11.740Z,65.61
2023-02-27T21:29:40.225Z,65.62
2023-02-27T21:32:08.655Z,65.44
2023-02-27T21:34:37.282Z,65.49
2023-02-27T21:37:07.608Z,65.21
2023-02-27T21:39:50.731Z,65.12
2023-02-27T21:42:19.014Z,65.16
2023-02-27T21:44:47.859Z,65.41
2023-02-27T21:47:17.406Z,65.42
2023-02-27T21:49:47.417Z,65.52
2023-02-27T21:52:16.001Z,65.45
2023-02-27T21:54:44.798Z,65.71
2023-02-27T21:57:13.062Z,65.62
2023-02-27T21:59:42.772Z,65.60
2023-02-27T22:02:11.664Z,65.28
2023-02-27T22:04:40.861Z,65.17
2023-02-27T22:07:11.374Z,65.11
2023-02-27T22:09:46.020Z,65.27
2023-02-27T22:12:16.282Z,64.91
2023-02-27T22:14:44.837Z,65.00
2023-02-27T22:17:13.095Z,64.81
2023-02-27T22:19:41.879Z,64.55
2023-02-27T22:22:10.262Z,64.49
2023-02-27T22:24:42.323Z,64.43
2023-02-27T22:27:11.114Z,64.77
2023-02-27T22:29:42.203Z,64.50
2023-02-27T22:32:11.715Z,64.28
2023-02-27T22:34:44.841Z,64.02
2023-02-27T22:37:16.403Z,64.04
2023-02-27T22:39:44.579Z,63.90
2023-02-27T22:42:12.905Z,63.89
2023-02-27T22:44:41.435Z,63.87
2023-02-27T22:47:10.527Z,63.84
2023-02-27T22:49:40.136Z,63.99
2023-02-27T22:52:08.620Z,64.22
2023-02-27T22:54:37.093Z,64.12
2023-02-27T22:57:06.494Z,64.12
2023-02-27T22:59:37.021Z,64.32
2023-02-27T23:02:06.538Z,64.32
2023-02-27T23:04:34.909Z,64.09
2023-02-27T23:07:03.589Z,63.97
2023-02-27T23:09:32.688Z,63.92
2023-02-27T23:12:04.551Z,63.96
2023-02-27T23:14:34.047Z,64.01
2023-02-27T23:17:02.429Z,63.65
2023-02-27T23:19:32.564Z,63.75
2023-02-27T23:22:06.660Z,63.78
2023-02-27T23:24:38.726Z,63.90
2023-02-27T23:27:25.340Z,63.86
2023-02-27T23:29:55.455Z,63.81
2023-02-27T23:32:24.286Z,63.69
2023-02-27T23:34:53.118Z,63.49
2023-02-27T23:37:21.502Z,63.51
2023-02-27T23:39:54.281Z,63.58
2023-02-27T23:42:23.299Z,63.51
2023-02-27T23:44:51.755Z,63.49
2023-02-27T23:47:39.098Z,63.49
2023-02-27T23:50:08.276Z,63.56
2023-02-27T23:52:37.071Z,63.46
2023-02-27T23:55:06.775Z,63.09
2023-02-27T23:57:35.254Z,63.03
